sensor_id;sensor_type;location;lat;lon;timestamp;temperature;humidity
11188;DHT22;5650;52.700;7.306;2023-03-09T00:01:26;1.80;99.90
11188;DHT22;5650;52.700;7.306;2023-03-09T00:03:54;1.80;99.90
11188;DHT22;5650;52.700;7.306;2023-03-09T00:06:21;1.80;99.90
11188;DHT22;5650;52.700;7.306;2023-03-09T00:08:49;1.80;99.90
11188;DHT22;5650;52.700;7.306;2023-03-09T00:11:18;1.80;99.90
11188;DHT22;5650;52.700;7.306;2023-03-09T00:13:47;1.80;99.90
11188;DHT22;5650;52.700;7.306;2023-03-09T00:16:19;1.80;99.90
11188;DHT22;5650;52.700;7.306;2023-03-09T00:18:49;1.80;99.90
11188;DHT22;5650;52.700;7.306;2023-03-09T00:21:23;1.80;99.90
11188;DHT22;5650;52.700;7.306;2023-03-09T00:24:02;1.80;99.90
11188;DHT22;5650;52.700;7.306;2023-03-09T00:29:53;1.80;99.90
11188;DHT22;5650;52.700;7.306;2023-03-09T00:32:20;1.80;99.90
11188;DHT22;5650;52.700;7.306;2023-03-09T00:34:47;1.80;99.90
11188;DHT22;5650;52.700;7.306;2023-03-09T00:37:14;1.80;99.90
11188;DHT22;5650;52.700;7.306;2023-03-09T00:39:47;1.80;99.90
11188;DHT22;5650;52.700;7.306;2023-03-09T00:42:14;1.80;99.90
11188;DHT22;5650;52.700;7.306;2023-03-09T00:44:41;1.80;99.90
11188;DHT22;5650;52.700;7.306;2023-03-09T00:47:16;1.80;99.90
11188;DHT22;5650;52.700;7.306;2023-03-09T00:49:47;1.80;99.90
11188;DHT22;5650;52.700;7.306;2023-03-09T00:52:15;1.70;99.90
11188;DHT22;5650;52.700;7.306;2023-03-09T00:54:42;1.70;99.90
11188;DHT22;5650;52.700;7.306;2023-03-09T00:57:12;1.70;99.90
11188;DHT22;5650;52.700;7.306;2023-03-09T00:59:43;1.70;99.90
11188;DHT22;5650;52.700;7.306;2023-03-09T01:02:14;1.60;99.90
11188;DHT22;5650;52.700;7.306;2023-03-09T01:04:45;1.60;99.90
11188;DHT22;5650;52.700;7.306;2023-03-09T01:07:13;1.60;99.90
11188;DHT22;5650;52.700;7.306;2023-03-09T01:09:40;1.50;99.90
11188;DHT22;5650;52.700;7.306;2023-03-09T01:12:11;1.50;99.90
11188;DHT22;5650;52.700;7.306;2023-03-09T01:14:38;1.50;99.90
11188;DHT22;5650;52.700;7.306;2023-03-09T01:17:08;1.50;99.90
11188;DHT22;5650;52.700;7.306;2023-03-09T01:19:41;1.50;99.90
11188;DHT22;5650;52.700;7.306;2023-03-09T01:22:19;1.50;99.90
11188;DHT22;5650;52.700;7.306;2023-03-09T01:24:55;1.40;99.90
11188;DHT22;5650;52.700;7.306;2023-03-09T01:27:25;1.40;99.90
11188;DHT22;5650;52.700;7.306;2023-03-09T01:29:55;1.40;99.90
11188;DHT22;5650;52.700;7.306;2023-03-09T01:32:23;1.40;99.90
11188;DHT22;5650;52.700;7.306;2023-03-09T01:34:51;1.40;99.90
11188;DHT22;5650;52.700;7.306;2023-03-09T01:37:20;1.40;99.90
11188;DHT22;5650;52.700;7.306;2023-03-09T01:39:47;1.40;99.90
11188;DHT22;5650;52.700;7.306;2023-03-09T01:42:26;1.40;99.90
11188;DHT22;5650;52.700;7.306;2023-03-09T01:47:56;1.40;99.90
11188;DHT22;5650;52.700;7.306;2023-03-09T01:50:26;1.30;99.90
11188;DHT22;5650;52.700;7.306;2023-03-09T01:53:04;1.30;99.90
11188;DHT22;5650;52.700;7.306;2023-03-09T01:55:41;1.30;99.90
11188;DHT22;5650;52.700;7.306;2023-03-09T01:58:12;1.30;99.90
11188;DHT22;5650;52.700;7.306;2023-03-09T02:00:52;1.40;99.90
11188;DHT22;5650;52.700;7.306;2023-03-09T02:03:25;1.30;99.90
11188;DHT22;5650;52.700;7.306;2023-03-09T02:05:56;1.30;99.90
11188;DHT22;5650;52.700;7.306;2023-03-09T02:08:27;1.30;99.90
11188;DHT22;5650;52.700;7.306;2023-03-09T02:10:56;1.30;99.90
11188;DHT22;5650;52.700;7.306;2023-03-09T02:13:27;1.30;99.90
11188;DHT22;5650;52.700;7.306;2023-03-09T02:15:55;1.30;99.90
11188;DHT22;5650;52.700;7.306;2023-03-09T02:18:23;1.30;99.90
11188;DHT22;5650;52.700;7.306;2023-03-09T02:21:00;1.30;99.90
11188;DHT22;5650;52.700;7.306;2023-03-09T02:23:36;1.30;99.90
11188;DHT22;5650;52.700;7.306;2023-03-09T02:26:17;1.30;99.90
11188;DHT22;5650;52.700;7.306;2023-03-09T02:28:47;1.30;99.90
11188;DHT22;5650;52.700;7.306;2023-03-09T02:31:18;1.30;99.90
11188;DHT22;5650;52.700;7.306;2023-03-09T02:33:46;1.30;99.90
11188;DHT22;5650;52.700;7.306;2023-03-09T02:36:16;1.30;99.90
11188;DHT22;5650;52.700;7.306;2023-03-09T02:38:43;1.30;99.90
11188;DHT22;5650;52.700;7.306;2023-03-09T02:41:12;1.30;99.90
11188;DHT22;5650;52.700;7.306;2023-03-09T02:43:43;1.30;99.90
11188;DHT22;5650;52.700;7.306;2023-03-09T02:46:13;1.30;99.90
11188;DHT22;5650;52.700;7.306;2023-03-09T02:48:41;1.30;99.90
11188;DHT22;5650;52.700;7.306;2023-03-09T02:51:11;1.30;99.90
11188;DHT22;5650;52.700;7.306;2023-03-09T02:53:38;1.30;99.90
11188;DHT22;5650;52.700;7.306;2023-03-09T02:56:09;1.30;99.90
11188;DHT22;5650;52.700;7.306;2023-03-09T02:58:36;1.30;99.90
11188;DHT22;5650;52.700;7.306;2023-03-09T03:01:03;1.30;99.90
11188;DHT22;5650;52.700;7.306;2023-03-09T03:03:32;1.30;99.90
11188;DHT22;5650;52.700;7.306;2023-03-09T03:06:11;1.30;99.90
11188;DHT22;5650;52.700;7.306;2023-03-09T03:08:39;1.30;99.90
11188;DHT22;5650;52.700;7.306;2023-03-09T03:11:12;1.30;99.90
11188;DHT22;5650;52.700;7.306;2023-03-09T03:13:45;1.30;99.90
11188;DHT22;5650;52.700;7.306;2023-03-09T03:16:12;1.30;99.90
11188;DHT22;5650;52.700;7.306;2023-03-09T03:18:41;1.30;99.90
11188;DHT22;5650;52.700;7.306;2023-03-09T03:21:17;1.30;99.90
11188;DHT22;5650;52.700;7.306;2023-03-09T03:23:44;1.30;99.90
11188;DHT22;5650;52.700;7.306;2023-03-09T03:26:18;1.30;99.90
11188;DHT22;5650;52.700;7.306;2023-03-09T03:28:45;1.30;99.90
11188;DHT22;5650;52.700;7.306;2023-03-09T03:31:12;1.30;99.90
11188;DHT22;5650;52.700;7.306;2023-03-09T03:33:43;1.30;99.90
11188;DHT22;5650;52.700;7.306;2023-03-09T03:36:10;1.30;99.90
11188;DHT22;5650;52.700;7.306;2023-03-09T03:38:43;1.30;99.90
11188;DHT22;5650;52.700;7.306;2023-03-09T03:41:13;1.30;99.90
11188;DHT22;5650;52.700;7.306;2023-03-09T03:43:41;1.30;99.90
11188;DHT22;5650;52.700;7.306;2023-03-09T03:46:14;1.30;99.90
11188;DHT22;5650;52.700;7.306;2023-03-09T03:48:48;1.40;99.90
11188;DHT22;5650;52.700;7.306;2023-03-09T03:51:16;1.40;99.90
11188;DHT22;5650;52.700;7.306;2023-03-09T03:53:46;1.40;99.90
11188;DHT22;5650;52.700;7.306;2023-03-09T03:56:16;1.40;99.90
11188;DHT22;5650;52.700;7.306;2023-03-09T03:58:46;1.40;99.90
11188;DHT22;5650;52.700;7.306;2023-03-09T04:01:20;1.40;99.90
11188;DHT22;5650;52.700;7.306;2023-03-09T04:03:54;1.40;99.90
11188;DHT22;5650;52.700;7.306;2023-03-09T04:06:24;1.40;99.90
11188;DHT22;5650;52.700;7.306;2023-03-09T04:08:51;1.40;99.90
11188;DHT22;5650;52.700;7.306;2023-03-09T04:11:21;1.40;99.90
11188;DHT22;5650;52.700;7.306;2023-03-09T04:13:51;1.40;99.90
11188;DHT22;5650;52.700;7.306;2023-03-09T04:16:27;1.40;99.90
11188;DHT22;5650;52.700;7.306;2023-03-09T04:18:55;1.40;99.90
11188;DHT22;5650;52.700;7.306;2023-03-09T04:21:25;1.40;99.90
11188;DHT22;5650;52.700;7.306;2023-03-09T04:23:52;1.40;99.90
11188;DHT22;5650;52.700;7.306;2023-03-09T04:26:19;1.40;99.90
11188;DHT22;5650;52.700;7.306;2023-03-09T04:28:49;1.40;99.90
11188;DHT22;5650;52.700;7.306;2023-03-09T04:31:16;1.40;99.90
11188;DHT22;5650;52.700;7.306;2023-03-09T04:33:46;1.40;99.90
11188;DHT22;5650;52.700;7.306;2023-03-09T04:36:17;1.40;99.90
11188;DHT22;5650;52.700;7.306;2023-03-09T04:38:51;1.40;99.90
11188;DHT22;5650;52.700;7.306;2023-03-09T04:41:21;1.40;99.90
11188;DHT22;5650;52.700;7.306;2023-03-09T04:43:54;1.40;99.90
11188;DHT22;5650;52.700;7.306;2023-03-09T04:46:21;1.40;99.90
11188;DHT22;5650;52.700;7.306;2023-03-09T04:48:57;1.40;99.90
11188;DHT22;5650;52.700;7.306;2023-03-09T04:51:25;1.40;99.90
11188;DHT22;5650;52.700;7.306;2023-03-09T04:53:54;1.40;99.90
11188;DHT22;5650;52.700;7.306;2023-03-09T04:56:22;1.40;99.90
11188;DHT22;5650;52.700;7.306;2023-03-09T04:58:49;1.50;99.90
11188;DHT22;5650;52.700;7.306;2023-03-09T05:01:16;1.50;99.90
11188;DHT22;5650;52.700;7.306;2023-03-09T05:03:43;1.50;99.90
11188;DHT22;5650;52.700;7.306;2023-03-09T05:06:10;1.50;99.90
11188;DHT22;5650;52.700;7.306;2023-03-09T05:08:42;1.50;99.90
11188;DHT22;5650;52.700;7.306;2023-03-09T05:11:09;1.50;99.90
11188;DHT22;5650;52.700;7.306;2023-03-09T05:13:36;1.50;99.90
11188;DHT22;5650;52.700;7.306;2023-03-09T05:16:09;1.50;99.90
11188;DHT22;5650;52.700;7.306;2023-03-09T05:18:42;1.50;99.90
11188;DHT22;5650;52.700;7.306;2023-03-09T05:21:18;1.50;99.90
11188;DHT22;5650;52.700;7.306;2023-03-09T05:23:47;1.50;99.90
11188;DHT22;5650;52.700;7.306;2023-03-09T05:26:14;1.40;99.90
11188;DHT22;5650;52.700;7.306;2023-03-09T05:28:44;1.40;99.90
11188;DHT22;5650;52.700;7.306;2023-03-09T05:31:13;1.40;99.90
11188;DHT22;5650;52.700;7.306;2023-03-09T05:33:40;1.40;99.90
11188;DHT22;5650;52.700;7.306;2023-03-09T05:36:17;1.40;99.90
11188;DHT22;5650;52.700;7.306;2023-03-09T05:38:47;1.40;99.90
11188;DHT22;5650;52.700;7.306;2023-03-09T05:41:14;1.40;99.90
11188;DHT22;5650;52.700;7.306;2023-03-09T05:43:41;1.30;99.90
11188;DHT22;5650;52.700;7.306;2023-03-09T05:46:09;1.30;99.90
11188;DHT22;5650;52.700;7.306;2023-03-09T05:48:37;1.40;99.90
11188;DHT22;5650;52.700;7.306;2023-03-09T05:51:05;1.40;99.90
11188;DHT22;5650;52.700;7.306;2023-03-09T05:53:34;1.30;99.90
11188;DHT22;5650;52.700;7.306;2023-03-09T05:56:05;1.30;99.90
11188;DHT22;5650;52.700;7.306;2023-03-09T05:58:32;1.40;99.90
11188;DHT22;5650;52.700;7.306;2023-03-09T06:01:00;1.40;99.90
11188;DHT22;5650;52.700;7.306;2023-03-09T06:03:28;1.40;99.90
11188;DHT22;5650;52.700;7.306;2023-03-09T06:05:59;1.30;99.90
11188;DHT22;5650;52.700;7.306;2023-03-09T06:08:40;1.40;99.90
11188;DHT22;5650;52.700;7.306;2023-03-09T06:11:09;1.40;99.90
11188;DHT22;5650;52.700;7.306;2023-03-09T06:13:36;1.40;99.90
11188;DHT22;5650;52.700;7.306;2023-03-09T06:16:08;1.40;99.90
11188;DHT22;5650;52.700;7.306;2023-03-09T06:18:37;1.40;99.90
11188;DHT22;5650;52.700;7.306;2023-03-09T06:21:05;1.40;99.90
11188;DHT22;5650;52.700;7.306;2023-03-09T06:23:33;1.40;99.90
11188;DHT22;5650;52.700;7.306;2023-03-09T06:26:08;1.40;99.90
11188;DHT22;5650;52.700;7.306;2023-03-09T06:28:40;1.40;99.90
11188;DHT22;5650;52.700;7.306;2023-03-09T06:31:09;1.40;99.90
11188;DHT22;5650;52.700;7.306;2023-03-09T06:33:40;1.50;99.90
11188;DHT22;5650;52.700;7.306;2023-03-09T06:36:09;1.50;99.90
11188;DHT22;5650;52.700;7.306;2023-03-09T06:38:40;1.50;99.90
11188;DHT22;5650;52.700;7.306;2023-03-09T06:41:07;1.50;99.90
11188;DHT22;5650;52.700;7.306;2023-03-09T06:43:34;1.50;99.90
11188;DHT22;5650;52.700;7.306;2023-03-09T06:46:06;1.50;99.90
11188;DHT22;5650;52.700;7.306;2023-03-09T06:48:34;1.50;99.90
11188;DHT22;5650;52.700;7.306;2023-03-09T06:51:01;1.50;99.90
11188;DHT22;5650;52.700;7.306;2023-03-09T06:53:31;1.60;99.90
11188;DHT22;5650;52.700;7.306;2023-03-09T06:56:08;1.60;99.90
11188;DHT22;5650;52.700;7.306;2023-03-09T06:58:39;1.60;99.90
11188;DHT22;5650;52.700;7.306;2023-03-09T07:01:09;1.60;99.90
11188;DHT22;5650;52.700;7.306;2023-03-09T07:03:37;1.70;99.90
11188;DHT22;5650;52.700;7.306;2023-03-09T07:06:05;1.70;99.90
11188;DHT22;5650;52.700;7.306;2023-03-09T07:08:35;1.70;99.90
11188;DHT22;5650;52.700;7.306;2023-03-09T07:11:03;1.70;99.90
11188;DHT22;5650;52.700;7.306;2023-03-09T07:13:30;1.70;99.90
11188;DHT22;5650;52.700;7.306;2023-03-09T07:16:00;1.70;99.90
11188;DHT22;5650;52.700;7.306;2023-03-09T07:18:29;1.70;99.90
11188;DHT22;5650;52.700;7.306;2023-03-09T07:20:58;1.80;99.90
11188;DHT22;5650;52.700;7.306;2023-03-09T07:23:32;1.80;99.90
11188;DHT22;5650;52.700;7.306;2023-03-09T07:26:00;1.80;99.90
11188;DHT22;5650;52.700;7.306;2023-03-09T07:28:27;1.80;99.90
11188;DHT22;5650;52.700;7.306;2023-03-09T07:30:58;1.90;99.90
11188;DHT22;5650;52.700;7.306;2023-03-09T07:33:25;1.90;99.90
11188;DHT22;5650;52.700;7.306;2023-03-09T07:36:02;1.90;99.90
11188;DHT22;5650;52.700;7.306;2023-03-09T07:38:29;1.90;99.90
11188;DHT22;5650;52.700;7.306;2023-03-09T07:41:00;2.00;99.90
11188;DHT22;5650;52.700;7.306;2023-03-09T07:43:33;2.00;99.90
11188;DHT22;5650;52.700;7.306;2023-03-09T07:46:05;2.00;99.90
11188;DHT22;5650;52.700;7.306;2023-03-09T07:48:32;2.10;99.90
11188;DHT22;5650;52.700;7.306;2023-03-09T07:51:01;2.10;99.90
11188;DHT22;5650;52.700;7.306;2023-03-09T07:53:32;2.20;99.90
11188;DHT22;5650;52.700;7.306;2023-03-09T07:56:03;2.30;99.90
11188;DHT22;5650;52.700;7.306;2023-03-09T07:58:31;2.30;99.90
11188;DHT22;5650;52.700;7.306;2023-03-09T08:00:59;2.30;99.90
11188;DHT22;5650;52.700;7.306;2023-03-09T08:03:33;2.30;99.90
11188;DHT22;5650;52.700;7.306;2023-03-09T08:06:02;2.30;99.90
11188;DHT22;5650;52.700;7.306;2023-03-09T08:08:32;2.30;99.90
11188;DHT22;5650;52.700;7.306;2023-03-09T08:11:02;2.30;99.90
11188;DHT22;5650;52.700;7.306;2023-03-09T08:13:30;2.30;99.90
11188;DHT22;5650;52.700;7.306;2023-03-09T08:16:01;2.40;99.90
11188;DHT22;5650;52.700;7.306;2023-03-09T08:18:29;2.40;99.90
11188;DHT22;5650;52.700;7.306;2023-03-09T08:21:04;2.40;99.90
11188;DHT22;5650;52.700;7.306;2023-03-09T08:23:32;2.40;99.90
11188;DHT22;5650;52.700;7.306;2023-03-09T08:26:04;2.40;99.90
11188;DHT22;5650;52.700;7.306;2023-03-09T08:28:34;2.40;99.90
11188;DHT22;5650;52.700;7.306;2023-03-09T08:31:03;2.40;99.90
11188;DHT22;5650;52.700;7.306;2023-03-09T08:33:31;2.40;99.90
11188;DHT22;5650;52.700;7.306;2023-03-09T08:36:13;2.40;99.90
11188;DHT22;5650;52.700;7.306;2023-03-09T08:38:48;2.40;99.90
11188;DHT22;5650;52.700;7.306;2023-03-09T08:41:16;2.40;99.90
11188;DHT22;5650;52.700;7.306;2023-03-09T08:43:44;2.40;99.90
11188;DHT22;5650;52.700;7.306;2023-03-09T08:46:20;2.50;99.90
11188;DHT22;5650;52.700;7.306;2023-03-09T08:48:47;2.50;99.90
11188;DHT22;5650;52.700;7.306;2023-03-09T08:51:16;2.60;99.90
11188;DHT22;5650;52.700;7.306;2023-03-09T08:53:44;2.60;99.90
11188;DHT22;5650;52.700;7.306;2023-03-09T08:56:14;2.70;99.90
11188;DHT22;5650;52.700;7.306;2023-03-09T08:58:47;2.70;99.90
11188;DHT22;5650;52.700;7.306;2023-03-09T09:01:17;2.70;99.90
11188;DHT22;5650;52.700;7.306;2023-03-09T09:03:47;2.70;99.90
11188;DHT22;5650;52.700;7.306;2023-03-09T09:06:16;2.80;99.90
11188;DHT22;5650;52.700;7.306;2023-03-09T09:08:47;2.80;99.90
11188;DHT22;5650;52.700;7.306;2023-03-09T09:11:20;2.90;99.90
11188;DHT22;5650;52.700;7.306;2023-03-09T09:13:48;2.90;99.90
11188;DHT22;5650;52.700;7.306;2023-03-09T09:16:18;3.00;99.90
11188;DHT22;5650;52.700;7.306;2023-03-09T09:18:45;3.00;99.90
11188;DHT22;5650;52.700;7.306;2023-03-09T09:21:16;3.00;99.90
11188;DHT22;5650;52.700;7.306;2023-03-09T09:23:46;3.10;99.90
11188;DHT22;5650;52.700;7.306;2023-03-09T09:26:20;3.10;99.90
11188;DHT22;5650;52.700;7.306;2023-03-09T09:28:54;3.10;99.90
11188;DHT22;5650;52.700;7.306;2023-03-09T09:31:22;3.00;99.90
11188;DHT22;5650;52.700;7.306;2023-03-09T09:33:53;3.00;99.90
11188;DHT22;5650;52.700;7.306;2023-03-09T09:36:24;3.00;99.90
11188;DHT22;5650;52.700;7.306;2023-03-09T09:38:52;3.00;99.90
11188;DHT22;5650;52.700;7.306;2023-03-09T09:41:23;3.00;99.90
11188;DHT22;5650;52.700;7.306;2023-03-09T09:43:55;3.10;99.90
11188;DHT22;5650;52.700;7.306;2023-03-09T09:46:34;3.10;99.90
11188;DHT22;5650;52.700;7.306;2023-03-09T09:49:06;3.10;99.90
11188;DHT22;5650;52.700;7.306;2023-03-09T09:51:46;3.20;99.90
11188;DHT22;5650;52.700;7.306;2023-03-09T09:54:21;3.20;99.90
11188;DHT22;5650;52.700;7.306;2023-03-09T09:56:56;3.20;99.90
11188;DHT22;5650;52.700;7.306;2023-03-09T09:59:28;3.20;99.90
11188;DHT22;5650;52.700;7.306;2023-03-09T10:02:01;3.30;99.90
11188;DHT22;5650;52.700;7.306;2023-03-09T10:04:33;3.30;99.90
11188;DHT22;5650;52.700;7.306;2023-03-09T10:07:12;3.30;99.90
11188;DHT22;5650;52.700;7.306;2023-03-09T10:09:41;3.40;99.90
11188;DHT22;5650;52.700;7.306;2023-03-09T10:12:14;3.40;99.90
11188;DHT22;5650;52.700;7.306;2023-03-09T10:14:52;3.30;99.90
11188;DHT22;5650;52.700;7.306;2023-03-09T10:17:26;3.40;99.90
11188;DHT22;5650;52.700;7.306;2023-03-09T10:20:09;3.40;99.90
11188;DHT22;5650;52.700;7.306;2023-03-09T10:22:39;3.40;99.90
11188;DHT22;5650;52.700;7.306;2023-03-09T10:25:20;3.50;99.90
11188;DHT22;5650;52.700;7.306;2023-03-09T10:27:51;3.50;99.90
11188;DHT22;5650;52.700;7.306;2023-03-09T10:30:31;3.50;99.90
11188;DHT22;5650;52.700;7.306;2023-03-09T10:33:12;3.60;99.90
11188;DHT22;5650;52.700;7.306;2023-03-09T10:35:54;3.60;99.90
11188;DHT22;5650;52.700;7.306;2023-03-09T10:38:24;3.60;99.90
11188;DHT22;5650;52.700;7.306;2023-03-09T10:40:53;3.50;99.90
11188;DHT22;5650;52.700;7.306;2023-03-09T10:43:27;3.50;99.90
11188;DHT22;5650;52.700;7.306;2023-03-09T10:46:11;3.60;99.90
11188;DHT22;5650;52.700;7.306;2023-03-09T10:48:39;3.60;99.90
11188;DHT22;5650;52.700;7.306;2023-03-09T10:51:23;3.60;99.90
11188;DHT22;5650;52.700;7.306;2023-03-09T10:53:52;3.50;99.90
11188;DHT22;5650;52.700;7.306;2023-03-09T10:56:25;3.50;99.90
11188;DHT22;5650;52.700;7.306;2023-03-09T10:59:13;3.50;99.90
11188;DHT22;5650;52.700;7.306;2023-03-09T11:01:42;3.50;99.90
11188;DHT22;5650;52.700;7.306;2023-03-09T11:04:42;3.60;99.90
11188;DHT22;5650;52.700;7.306;2023-03-09T11:07:19;3.60;99.90
11188;DHT22;5650;52.700;7.306;2023-03-09T11:09:51;3.60;99.90
11188;DHT22;5650;52.700;7.306;2023-03-09T11:12:26;3.60;99.90
11188;DHT22;5650;52.700;7.306;2023-03-09T11:14:56;3.60;99.90
11188;DHT22;5650;52.700;7.306;2023-03-09T11:17:31;3.70;99.90
11188;DHT22;5650;52.700;7.306;2023-03-09T11:20:22;3.80;99.90
11188;DHT22;5650;52.700;7.306;2023-03-09T11:22:55;3.80;99.90
11188;DHT22;5650;52.700;7.306;2023-03-09T11:25:37;3.90;99.90
11188;DHT22;5650;52.700;7.306;2023-03-09T11:28:14;3.90;99.90
11188;DHT22;5650;52.700;7.306;2023-03-09T11:30:45;3.90;99.90
11188;DHT22;5650;52.700;7.306;2023-03-09T11:33:16;4.00;99.90
11188;DHT22;5650;52.700;7.306;2023-03-09T11:35:46;4.00;99.90
11188;DHT22;5650;52.700;7.306;2023-03-09T11:38:16;4.10;99.90
11188;DHT22;5650;52.700;7.306;2023-03-09T11:40:56;4.20;99.90
11188;DHT22;5650;52.700;7.306;2023-03-09T11:43:37;4.20;99.90
11188;DHT22;5650;52.700;7.306;2023-03-09T11:46:09;4.20;99.90
11188;DHT22;5650;52.700;7.306;2023-03-09T11:48:40;4.20;99.90
11188;DHT22;5650;52.700;7.306;2023-03-09T11:51:13;4.20;99.90
11188;DHT22;5650;52.700;7.306;2023-03-09T11:53:43;4.10;99.90
11188;DHT22;5650;52.700;7.306;2023-03-09T11:56:24;4.10;99.90
11188;DHT22;5650;52.700;7.306;2023-03-09T11:58:58;4.20;99.90
11188;DHT22;5650;52.700;7.306;2023-03-09T12:01:30;4.20;99.90
11188;DHT22;5650;52.700;7.306;2023-03-09T12:04:02;4.20;99.90
11188;DHT22;5650;52.700;7.306;2023-03-09T12:06:38;4.10;99.90
11188;DHT22;5650;52.700;7.306;2023-03-09T12:09:10;4.10;99.90
11188;DHT22;5650;52.700;7.306;2023-03-09T12:11:48;4.10;99.90
11188;DHT22;5650;52.700;7.306;2023-03-09T12:14:22;4.20;99.90
11188;DHT22;5650;52.700;7.306;2023-03-09T12:16:53;4.20;99.90
11188;DHT22;5650;52.700;7.306;2023-03-09T12:19:22;4.20;99.90
11188;DHT22;5650;52.700;7.306;2023-03-09T12:22:00;4.20;99.90
11188;DHT22;5650;52.700;7.306;2023-03-09T12:24:32;4.10;99.90
11188;DHT22;5650;52.700;7.306;2023-03-09T12:27:04;4.10;99.90
11188;DHT22;5650;52.700;7.306;2023-03-09T12:29:39;4.10;99.90
11188;DHT22;5650;52.700;7.306;2023-03-09T12:32:35;4.10;99.90
11188;DHT22;5650;52.700;7.306;2023-03-09T12:37:57;4.10;99.90
11188;DHT22;5650;52.700;7.306;2023-03-09T12:40:35;4.10;99.90
11188;DHT22;5650;52.700;7.306;2023-03-09T12:47:02;4.20;99.90
11188;DHT22;5650;52.700;7.306;2023-03-09T12:49:32;4.20;99.90
11188;DHT22;5650;52.700;7.306;2023-03-09T12:55:17;4.20;99.90
11188;DHT22;5650;52.700;7.306;2023-03-09T12:57:46;4.20;99.90
11188;DHT22;5650;52.700;7.306;2023-03-09T13:00:26;4.30;99.90
11188;DHT22;5650;52.700;7.306;2023-03-09T13:03:17;4.30;99.90
11188;DHT22;5650;52.700;7.306;2023-03-09T13:05:45;4.30;99.90
11188;DHT22;5650;52.700;7.306;2023-03-09T13:08:24;4.30;99.90
11188;DHT22;5650;52.700;7.306;2023-03-09T13:11:32;4.30;99.90
11188;DHT22;5650;52.700;7.306;2023-03-09T13:14:10;4.20;99.90
11188;DHT22;5650;52.700;7.306;2023-03-09T13:17:02;4.30;99.90
11188;DHT22;5650;52.700;7.306;2023-03-09T13:19:51;4.30;99.90
11188;DHT22;5650;52.700;7.306;2023-03-09T13:22:36;4.30;99.90
11188;DHT22;5650;52.700;7.306;2023-03-09T13:25:42;4.30;99.90
11188;DHT22;5650;52.700;7.306;2023-03-09T13:28:36;4.30;99.90
11188;DHT22;5650;52.700;7.306;2023-03-09T13:31:17;4.30;99.90
11188;DHT22;5650;52.700;7.306;2023-03-09T13:33:46;4.30;99.90
11188;DHT22;5650;52.700;7.306;2023-03-09T13:36:23;4.30;99.90
11188;DHT22;5650;52.700;7.306;2023-03-09T13:38:54;4.30;99.90
11188;DHT22;5650;52.700;7.306;2023-03-09T13:41:26;4.40;99.90
11188;DHT22;5650;52.700;7.306;2023-03-09T13:43:57;4.40;99.90
11188;DHT22;5650;52.700;7.306;2023-03-09T13:46:31;4.40;99.90
11188;DHT22;5650;52.700;7.306;2023-03-09T13:49:01;4.40;99.90
11188;DHT22;5650;52.700;7.306;2023-03-09T13:51:43;4.40;99.90
11188;DHT22;5650;52.700;7.306;2023-03-09T13:54:27;4.40;99.90
11188;DHT22;5650;52.700;7.306;2023-03-09T13:57:00;4.40;99.90
11188;DHT22;5650;52.700;7.306;2023-03-09T13:59:32;4.30;99.90
11188;DHT22;5650;52.700;7.306;2023-03-09T14:02:06;4.30;99.90
11188;DHT22;5650;52.700;7.306;2023-03-09T14:04:43;4.30;99.90
11188;DHT22;5650;52.700;7.306;2023-03-09T14:07:18;4.30;99.90
11188;DHT22;5650;52.700;7.306;2023-03-09T14:09:53;4.30;99.90
11188;DHT22;5650;52.700;7.306;2023-03-09T14:12:30;4.30;99.90
11188;DHT22;5650;52.700;7.306;2023-03-09T14:15:00;4.30;99.90
11188;DHT22;5650;52.700;7.306;2023-03-09T14:17:29;4.20;99.90
11188;DHT22;5650;52.700;7.306;2023-03-09T14:19:59;4.20;99.90
11188;DHT22;5650;52.700;7.306;2023-03-09T14:22:29;4.10;99.90
11188;DHT22;5650;52.700;7.306;2023-03-09T14:24:58;4.00;99.90
11188;DHT22;5650;52.700;7.306;2023-03-09T14:27:33;4.00;99.90
11188;DHT22;5650;52.700;7.306;2023-03-09T14:30:32;3.90;99.90
11188;DHT22;5650;52.700;7.306;2023-03-09T14:33:26;3.90;99.90
11188;DHT22;5650;52.700;7.306;2023-03-09T14:36:15;3.90;99.90
11188;DHT22;5650;52.700;7.306;2023-03-09T14:39:00;3.90;99.90
11188;DHT22;5650;52.700;7.306;2023-03-09T14:41:36;3.80;99.90
11188;DHT22;5650;52.700;7.306;2023-03-09T14:44:32;3.80;99.90
11188;DHT22;5650;52.700;7.306;2023-03-09T14:46:59;3.80;99.90
11188;DHT22;5650;52.700;7.306;2023-03-09T14:49:26;3.70;99.90
11188;DHT22;5650;52.700;7.306;2023-03-09T14:51:56;3.70;99.90
11188;DHT22;5650;52.700;7.306;2023-03-09T14:54:24;3.70;99.90
11188;DHT22;5650;52.700;7.306;2023-03-09T14:56:53;3.70;99.90
11188;DHT22;5650;52.700;7.306;2023-03-09T14:59:20;3.70;99.90
11188;DHT22;5650;52.700;7.306;2023-03-09T15:01:49;3.60;99.90
11188;DHT22;5650;52.700;7.306;2023-03-09T15:04:20;3.60;99.90
11188;DHT22;5650;52.700;7.306;2023-03-09T15:06:53;3.60;99.90
11188;DHT22;5650;52.700;7.306;2023-03-09T15:09:28;3.50;99.90
11188;DHT22;5650;52.700;7.306;2023-03-09T15:12:01;3.50;99.90
11188;DHT22;5650;52.700;7.306;2023-03-09T15:14:31;3.40;99.90
11188;DHT22;5650;52.700;7.306;2023-03-09T15:17:02;3.40;99.90
11188;DHT22;5650;52.700;7.306;2023-03-09T15:19:31;3.40;99.90
11188;DHT22;5650;52.700;7.306;2023-03-09T15:22:01;3.40;99.90
11188;DHT22;5650;52.700;7.306;2023-03-09T15:24:30;3.40;99.90
11188;DHT22;5650;52.700;7.306;2023-03-09T15:26:58;3.40;99.90
11188;DHT22;5650;52.700;7.306;2023-03-09T15:29:32;3.30;99.90
11188;DHT22;5650;52.700;7.306;2023-03-09T15:32:00;3.30;99.90
11188;DHT22;5650;52.700;7.306;2023-03-09T15:34:32;3.30;99.90
11188;DHT22;5650;52.700;7.306;2023-03-09T15:37:05;3.40;99.90
11188;DHT22;5650;52.700;7.306;2023-03-09T15:39:37;3.40;99.90
11188;DHT22;5650;52.700;7.306;2023-03-09T15:42:07;3.40;99.90
11188;DHT22;5650;52.700;7.306;2023-03-09T15:44:34;3.30;99.90
11188;DHT22;5650;52.700;7.306;2023-03-09T15:47:01;3.30;99.90
11188;DHT22;5650;52.700;7.306;2023-03-09T15:49:29;3.30;99.90
11188;DHT22;5650;52.700;7.306;2023-03-09T15:52:05;3.30;99.90
11188;DHT22;5650;52.700;7.306;2023-03-09T15:54:37;3.30;99.90
11188;DHT22;5650;52.700;7.306;2023-03-09T15:57:04;3.30;99.90
11188;DHT22;5650;52.700;7.306;2023-03-09T15:59:34;3.20;99.90
11188;DHT22;5650;52.700;7.306;2023-03-09T16:02:02;3.20;99.90
11188;DHT22;5650;52.700;7.306;2023-03-09T16:04:35;3.20;99.90
11188;DHT22;5650;52.700;7.306;2023-03-09T16:07:02;3.20;99.90
11188;DHT22;5650;52.700;7.306;2023-03-09T16:09:30;3.10;99.90
11188;DHT22;5650;52.700;7.306;2023-03-09T16:11:58;3.10;99.90
11188;DHT22;5650;52.700;7.306;2023-03-09T16:14:25;3.10;99.90
11188;DHT22;5650;52.700;7.306;2023-03-09T16:16:53;3.10;99.90
11188;DHT22;5650;52.700;7.306;2023-03-09T16:19:20;3.10;99.90
11188;DHT22;5650;52.700;7.306;2023-03-09T16:21:47;3.00;99.90
11188;DHT22;5650;52.700;7.306;2023-03-09T16:24:14;3.10;99.90
11188;DHT22;5650;52.700;7.306;2023-03-09T16:26:41;3.00;99.90
11188;DHT22;5650;52.700;7.306;2023-03-09T16:29:10;3.00;99.90
11188;DHT22;5650;52.700;7.306;2023-03-09T16:31:38;3.00;99.90
11188;DHT22;5650;52.700;7.306;2023-03-09T16:34:05;2.90;99.90
11188;DHT22;5650;52.700;7.306;2023-03-09T16:36:35;2.90;99.90
11188;DHT22;5650;52.700;7.306;2023-03-09T16:39:02;2.90;99.90
11188;DHT22;5650;52.700;7.306;2023-03-09T16:41:30;2.80;99.90
11188;DHT22;5650;52.700;7.306;2023-03-09T16:43:57;2.80;99.90
11188;DHT22;5650;52.700;7.306;2023-03-09T16:46:29;2.80;99.90
11188;DHT22;5650;52.700;7.306;2023-03-09T16:49:00;2.80;99.90